Home   Weather   USA   Manistique   Past weeks
Flag for USA

Past Weather in Manistique, Michigan, USA — Yesterday and Last 2 Weeks

Currently: 35 °F. Overcast. (Weather station: Schoolcraft County Airport, USA). See more current weather

Past Weather in Manistique — Graph

°F

Manistique Temperature Yesterday

Maximum temperature yesterday: 47 °F (at 2:35 pm)
Minimum temperature yesterday: 39 °F (at 1:35 am)
Average temperature yesterday: 42 °F

High & Low Weather Summary for the Past Weeks

 TemperatureHumidityPressure
High68 °F (Apr 8, 4:15 pm)98% (Apr 9, 11:35 pm)30.49 "Hg (Apr 9, 11:35 pm)
Low13 °F (Apr 2, 7:15 am)24% (Apr 1, 2:55 pm)29.36 "Hg (Apr 11, 1:35 pm)
Average43 °F76%29.89 "Hg
* Reported Mar 30 5:15 am — Apr 14 5:35 am, Manistique. Weather by CustomWeather, © 2021

Note: Actual official high and low records may vary slightly from our data, if they occured in-between our weather recording intervals... More about our weather records

Manistique Weather History for the Previous 24 Hours

Scroll right to see more
 ConditionsComfort  
Time TempWeatherWind HumidityBarometerVisibility
5:35 am
Wed, Apr 14
36 °FMostly cloudy.No wind87%30.01 "Hg10 mi
5:15 am36 °FMostly cloudy.No wind89%30.01 "Hg10 mi
4:35 am36 °FOvercast.No wind89%30.02 "Hg10 mi
3:55 am36 °FOvercast.No wind89%30.02 "Hg10 mi
3:35 am36 °FOvercast.No wind88%30.02 "Hg10 mi
3:15 am36 °FOvercast.No wind87%30.02 "Hg10 mi
2:55 am36 °FOvercast.No wind87%30.02 "Hg10 mi
2:35 am36 °FOvercast.No wind86%30.03 "Hg10 mi
2:15 am36 °FOvercast.No wind84%30.03 "Hg10 mi
1:55 am37 °FOvercast.No wind84%30.04 "Hg10 mi
1:35 am36 °FPassing clouds.No wind85%30.04 "Hg10 mi
1:15 am36 °FPassing clouds.3 mph85%30.04 "Hg10 mi
12:55 am37 °FPassing clouds.3 mph83%30.04 "Hg10 mi
12:35 am38 °FMostly cloudy.3 mph83%30.04 "Hg10 mi
12:15 am38 °FLight rain. Overcast.3 mph82%30.04 "Hg10 mi
11:55 pm
Tue, Apr 13
39 °FLight rain. Mostly cloudy.6 mph77%30.04 "Hg10 mi
11:35 pm40 °FMostly cloudy.7 mph73%30.04 "Hg10 mi
11:15 pm40 °FOvercast.8 mph71%30.04 "Hg10 mi
10:55 pm40 °FOvercast.6 mph80%30.03 "Hg10 mi
10:35 pm40 °FMostly cloudy.6 mph80%30.03 "Hg10 mi
10:15 pm40 °FOvercast.7 mph79%30.03 "Hg10 mi
9:55 pm40 °FOvercast.8 mph81%30.03 "Hg10 mi
9:35 pm41 °FOvercast.7 mph78%30.02 "Hg10 mi
9:15 pm42 °FOvercast.6 mph69%30.02 "Hg10 mi
8:55 pm42 °FOvercast.7 mph67%30.01 "Hg10 mi
8:35 pm42 °FOvercast.8 mph68%30.01 "Hg10 mi
8:15 pm41 °FOvercast.8 mph73%30.01 "Hg10 mi
7:55 pm42 °FOvercast.8 mph72%30.00 "Hg10 mi
7:35 pm40 °FOvercast.7 mph76%30.00 "Hg10 mi
7:15 pm41 °FMore clouds than sun.9 mph71%30.00 "Hg10 mi
6:55 pm42 °FPartly sunny.12 mph68%30.00 "Hg10 mi
6:35 pm43 °FPartly sunny.9 mph68%29.99 "Hg10 mi
6:15 pm44 °FOvercast.7 mph64%29.99 "Hg10 mi
5:55 pm44 °FOvercast.9 mph70%29.99 "Hg10 mi
5:35 pm44 °FOvercast.9 mph74%29.99 "Hg10 mi
5:15 pm45 °FOvercast.13 mph71%29.98 "Hg10 mi
4:55 pm43 °FOvercast.10 mph77%29.98 "Hg10 mi
4:35 pm45 °FPartly sunny.13 mph71%29.98 "Hg10 mi
4:15 pm45 °FBroken clouds.12 mph71%29.97 "Hg10 mi
3:55 pm45 °FBroken clouds.13 mph73%29.96 "Hg10 mi
3:35 pm45 °FPartly sunny.12 mph71%29.96 "Hg10 mi
3:15 pm44 °FScattered clouds.10 mph75%29.96 "Hg10 mi
2:55 pm47 °FScattered clouds.10 mph67%29.96 "Hg10 mi
2:35 pm47 °FScattered clouds.12 mph71%29.96 "Hg10 mi
2:15 pm46 °FPartly sunny.12 mph75%29.95 "Hg10 mi
1:55 pm45 °FOvercast.8 mph80%29.95 "Hg10 mi
1:35 pm45 °FOvercast.9 mph79%29.95 "Hg10 mi
1:15 pm45 °FOvercast.10 mph81%29.95 "Hg10 mi
12:55 pm45 °FOvercast.9 mph80%29.95 "Hg10 mi
12:35 pm44 °FDrizzle. Overcast.9 mph85%29.94 "Hg10 mi
12:15 pm43 °FDrizzle. Overcast.8 mph86%29.94 "Hg10 mi
11:55 am44 °FMore clouds than sun.9 mph86%29.93 "Hg10 mi
11:35 am42 °FMore clouds than sun.7 mph89%29.93 "Hg10 mi
11:15 am42 °FOvercast.9 mph88%29.92 "Hg10 mi
10:55 am43 °FOvercast.8 mph88%29.91 "Hg10 mi
10:35 am42 °FOvercast.7 mph92%29.91 "Hg10 mi
10:15 am42 °FOvercast.6 mph93%29.91 "Hg10 mi
9:35 am41 °FMostly cloudy.7 mph94%29.90 "Hg10 mi
9:15 am41 °FOvercast.6 mph93%29.90 "Hg10 mi
8:55 am40 °FOvercast.6 mph94%29.90 "Hg10 mi
8:35 am40 °FOvercast.7 mph93%29.89 "Hg10 mi
8:15 am40 °FOvercast.6 mph94%29.88 "Hg10 mi
7:55 am40 °FOvercast.7 mph95%29.87 "Hg10 mi
7:35 am40 °FOvercast.7 mph95%29.87 "Hg10 mi
7:15 am40 °FMostly cloudy.5 mph97%29.87 "Hg10 mi
6:55 am40 °FPartly cloudy.7 mph97%29.86 "Hg10 mi
6:35 am39 °FPassing clouds.6 mph97%29.86 "Hg10 mi
Weather by CustomWeather, © 2021

See weather overview